Armada Township, Michigan
Current Conditions -  °F | °C
As of 9:55 AM on Thursday 30 Oct 2014 (Local Time) from KMTC Reporting Station
Few Clouds Few Clouds  
Wind Chill: 40°   Ceiling: Unl
Heat Index: 44°   Visibility: 12mi
Dew Point: 34°   Wind: 7mph
Humidity: 68%   Direction: 280°W
Pressure: 30.11"   Gusts: NA
Location:  42.8463°N, 82.9201°W
Report Text: KMTC 301355Z 28006KT 12SM FEW030 FEW220 07/01 A3011 RMK SLP209 T00680012
Loading
Personal Weather Stations






























Interactive Weather Map New forecast layout! Learn more

10-Day Weather Forecast

Advertisements
Track Severe Weather on mobile